Time;durP1;ratioP1;P1;durP2;ratioP2;P2;SDS_P1;SDS_P2;PMS_P1;PMS_P2;Temp;Humidity;BMP_temperature;BMP_pressure;BME280_temperature;BME280_humidity;BME280_pressure;Samples;Min_cycle;Max_cycle;Signal;HPM_P1;HPM_P2
2023/03/30 00:00:48;;;;;;;13.35;7.43;;;179.90;2252.80;;;;;;4940113;29;20064;-80
2023/03/30 00:03:25;;;;;;;15.23;7.75;;;179.80;2252.80;;;;;;4952450;29;20031;-79
2023/03/30 00:06:02;;;;;;;12.93;7.22;;;179.80;2252.80;;;;;;4949925;29;20044;-80
2023/03/30 00:12:02;;;;;;;14.48;8.23;;;179.90;2252.80;;;;;;4958459;29;20451;-80
2023/03/30 00:14:28;;;;;;;13.38;7.72;;;179.90;2252.80;;;;;;4955217;29;20031;-79
2023/03/30 00:16:55;;;;;;;13.80;7.10;;;179.50;2252.80;;;;;;4948625;29;20031;-80
2023/03/30 00:19:25;;;;;;;12.18;7.20;;;179.70;2252.80;;;;;;4956504;29;20039;-79
2023/03/30 00:21:53;;;;;;;23.10;10.18;;;179.80;2252.80;;;;;;4945285;28;20039;-80
2023/03/30 00:24:51;;;;;;;27.25;11.02;;;179.70;2252.80;;;;;;4940931;29;20459;-80
2023/03/30 00:27:22;;;;;;;20.48;8.75;;;179.70;2252.80;;;;;;4958623;29;20051;-80
2023/03/30 00:29:55;;;;;;;20.65;9.00;;;179.30;2252.80;;;;;;4943518;29;20084;-80
2023/03/30 00:32:23;;;;;;;19.85;8.63;;;179.80;2252.80;;;;;;4954462;29;20015;-80
2023/03/30 00:35:16;;;;;;;26.88;10.80;;;205.50;2252.80;;;;;;4953392;29;20036;-80
2023/03/30 00:37:50;;;;;;;17.27;8.10;;;179.90;2252.80;;;;;;4938268;29;20020;-80
2023/03/30 00:40:34;;;;;;;12.65;7.20;;;179.90;2252.80;;;;;;4911817;29;20036;-79
2023/03/30 00:43:15;;;;;;;12.45;7.13;;;179.80;2252.80;;;;;;4955540;29;20042;-79
2023/03/30 00:45:50;;;;;;;15.68;7.35;;;179.70;2252.80;;;;;;4943936;29;20080;-78
2023/03/30 00:48:33;;;;;;;14.38;6.95;;;180.00;2252.80;;;;;;4940536;29;20118;-79
2023/03/30 00:51:10;;;;;;;15.70;7.35;;;179.60;2252.80;;;;;;4948941;29;20073;-79
2023/03/30 00:53:50;;;;;;;14.50;7.10;;;179.60;2252.80;;;;;;4942988;29;20043;-79
2023/03/30 00:56:22;;;;;;;14.35;7.38;;;179.50;2252.80;;;;;;4945931;29;20035;-79
2023/03/30 00:59:06;;;;;;;14.50;7.45;;;179.50;2252.80;;;;;;4950526;29;20032;-79
2023/03/30 01:01:37;;;;;;;16.85;8.13;;;179.50;2252.80;;;;;;4946701;29;20229;-79
2023/03/30 01:04:09;;;;;;;17.30;8.15;;;179.60;2252.80;;;;;;4946205;29;20039;-79
2023/03/30 01:06:42;;;;;;;15.13;7.28;;;179.60;2252.80;;;;;;4944615;29;20479;-78
2023/03/30 01:09:28;;;;;;;12.00;6.97;;;179.20;2252.80;;;;;;4941853;29;20045;-79
2023/03/30 01:12:01;;;;;;;15.23;7.43;;;179.50;2252.80;;;;;;4944059;29;20031;-80
2023/03/30 01:14:27;;;;;;;12.23;7.35;;;179.40;2252.80;;;;;;4941742;29;20042;-79
2023/03/30 01:17:30;;;;;;;15.57;7.78;;;179.30;2252.80;;;;;;4951023;29;20020;-79
2023/03/30 01:20:31;;;;;;;13.95;7.47;;;179.60;2252.80;;;;;;4932511;29;20051;-79
2023/03/30 01:23:26;;;;;;;15.23;7.07;;;179.40;2252.80;;;;;;4944894;29;20047;-79
2023/03/30 01:26:40;;;;;;;14.25;7.25;;;179.40;2252.80;;;;;;4888607;29;20029;-80
2023/03/30 01:29:24;;;;;;;13.65;7.10;;;179.40;2252.80;;;;;;4837440;29;20042;-78
2023/03/30 01:32:18;;;;;;;11.88;6.80;;;179.40;2252.80;;;;;;4826352;29;20052;-79
2023/03/30 01:35:27;;;;;;;13.93;7.37;;;179.40;2252.80;;;;;;4823176;29;20038;-78
2023/03/30 01:38:30;;;;;;;12.68;6.95;;;179.50;2252.80;;;;;;4807964;29;20043;-78
2023/03/30 01:41:29;;;;;;;13.07;6.80;;;179.50;2252.80;;;;;;4808018;29;20062;-78
2023/03/30 01:44:07;;;;;;;13.18;6.50;;;179.60;2252.80;;;;;;4807461;29;20042;-78
2023/03/30 01:46:47;;;;;;;13.15;6.97;;;179.60;2252.80;;;;;;4800450;30;20039;-77
2023/03/30 01:50:14;;;;;;;14.57;6.93;;;179.60;2252.80;;;;;;4801819;29;20538;-79
2023/03/30 01:57:40;;;;;;;10.15;6.10;;;179.60;2252.80;;;;;;4807624;29;20201;-79
2023/03/30 02:00:35;;;;;;;13.07;6.47;;;179.50;2252.80;;;;;;4810457;30;20137;-80
2023/03/30 02:03:26;;;;;;;16.25;7.53;;;179.40;2252.80;;;;;;4807537;29;20054;-79
2023/03/30 02:06:05;;;;;;;12.30;6.30;;;179.40;2252.80;;;;;;4843096;29;20060;-79
2023/03/30 02:11:56;;;;;;;14.63;6.25;;;179.60;2252.80;;;;;;4870206;29;20056;-79
2023/03/30 02:14:32;;;;;;;12.90;6.43;;;179.60;2252.80;;;;;;4886170;29;20041;-79
2023/03/30 02:17:26;;;;;;;12.68;5.97;;;179.60;2252.80;;;;;;4880571;29;20030;-80
2023/03/30 02:19:56;;;;;;;13.52;6.20;;;179.60;2252.80;;;;;;4892869;29;20615;-79
2023/03/30 02:22:31;;;;;;;12.52;6.03;;;179.50;2252.80;;;;;;4892732;29;20045;-80
2023/03/30 02:25:42;;;;;;;12.35;5.80;;;179.60;2252.80;;;;;;4932538;29;20044;-79
2023/03/30 02:28:15;;;;;;;11.43;6.18;;;179.60;2252.80;;;;;;4937014;29;20103;-80
2023/03/30 02:30:50;;;;;;;14.32;6.85;;;179.60;2252.80;;;;;;4938298;29;20046;-79
2023/03/30 02:33:26;;;;;;;;;;;179.60;2252.80;;;;;;5024402;23;20063;-80
2023/03/30 02:36:23;;;;;;;16.25;7.10;;;179.60;2252.80;;;;;;4953229;29;19902;-78
2023/03/30 02:39:07;;;;;;;15.65;7.45;;;179.60;2252.80;;;;;;4940005;29;20482;-79
2023/03/30 02:42:02;;;;;;;15.40;7.18;;;179.60;2252.80;;;;;;4941708;29;20402;-79
2023/03/30 02:45:07;;;;;;;15.50;7.82;;;179.50;2252.80;;;;;;4954327;29;20466;-79
2023/03/30 02:48:26;;;;;;;17.67;7.80;;;179.40;2252.80;;;;;;4958537;29;20108;-80
2023/03/30 02:51:39;;;;;;;17.70;8.68;;;179.40;2252.80;;;;;;4955755;29;20111;-80
2023/03/30 02:54:36;;;;;;;18.35;7.93;;;179.30;2252.80;;;;;;4919072;29;20036;-79
2023/03/30 02:57:26;;;;;;;19.40;8.63;;;179.30;2252.80;;;;;;4917629;29;20056;-80
2023/03/30 03:00:26;;;;;;;16.65;8.13;;;179.20;2252.80;;;;;;4909338;29;20028;-80
2023/03/30 03:03:03;;;;;;;13.02;7.57;;;154.50;2252.80;;;;;;4896008;29;20045;-79
2023/03/30 03:05:55;;;;;;;12.27;6.85;;;154.50;2252.80;;;;;;4915982;29;20045;-79
2023/03/30 03:08:32;;;;;;;14.70;7.18;;;154.50;2252.80;;;;;;4914324;29;20064;-79
2023/03/30 03:11:27;;;;;;;11.77;7.10;;;154.50;2252.80;;;;;;5089796;23;20052;-78
2023/03/30 03:14:10;;;;;;;14.85;7.68;;;154.40;2252.80;;;;;;5156810;23;20100;-78
2023/03/30 03:17:12;;;;;;;13.13;7.28;;;154.40;2252.80;;;;;;4915850;29;20093;-78
2023/03/30 03:20:02;;;;;;;12.52;6.90;;;154.40;2252.80;;;;;;4879770;29;20066;-80
2023/03/30 03:22:52;;;;;;;13.88;7.43;;;154.30;2252.80;;;;;;4895337;29;20053;-80
2023/03/30 03:28:35;;;;;;;11.82;7.07;;;154.50;2252.80;;;;;;4897392;29;20069;-79
2023/03/30 03:31:07;;;;;;;13.60;7.72;;;154.00;2252.80;;;;;;4864449;29;20041;-80
2023/03/30 03:33:35;;;;;;;15.60;9.15;;;154.00;2252.80;;;;;;4887813;29;20049;-79
2023/03/30 03:36:02;;;;;;;19.23;12.02;;;;;;;;;;4893285;29;20059;-79
2023/03/30 03:45:13;;;;;;;28.27;17.55;;;;;;;;;;4893301;29;20032;-79
2023/03/30 03:47:43;;;;;;;27.92;15.60;;;;;;;;;;4901123;29;20033;-79
2023/03/30 03:50:14;;;;;;;22.08;11.80;;;154.00;2252.80;;;;;;4885970;29;20037;-79
2023/03/30 03:52:40;;;;;;;18.60;10.07;;;153.70;2252.80;;;;;;4900549;29;20047;-79
2023/03/30 03:57:43;;;;;;;18.08;10.13;;;;;;;;;;4895466;23;20090;-80
2023/03/30 04:00:15;;;;;;;17.58;9.30;;;;;;;;;;4888920;29;20021;-81
2023/03/30 04:02:50;;;;;;;17.67;9.75;;;;;;;;;;4933238;23;20067;-80
2023/03/30 04:05:19;;;;;;;22.42;12.15;;;;;;;;;;4924064;29;20076;-81
2023/03/30 04:07:55;;;;;;;19.02;10.70;;;;;;;;;;4923941;29;20014;-81
2023/03/30 04:13:30;;;;;;;18.08;10.18;;;;;;;;;;4923855;29;20069;-80
2023/03/30 04:16:00;;;;;;;20.13;10.00;;;;;;;;;;4922684;29;20048;-81
2023/03/30 04:18:35;;;;;;;22.67;10.38;;;;;;;;;;4888785;29;20029;-81
2023/03/30 04:21:06;;;;;;;22.75;10.85;;;;;;;;;;4904498;29;20066;-81
2023/03/30 04:23:48;;;;;;;21.15;10.38;;;;;;;;;;4913607;29;20032;-81
2023/03/30 04:29:39;;;;;;;;;;;;;;;;;;4916943;29;20119;-81
2023/03/30 04:32:09;;;;;;;18.00;9.88;;;;;;;;;;4916472;29;19908;-81
2023/03/30 04:34:41;;;;;;;20.45;10.02;;;;;;;;;;4895630;29;20073;-80
2023/03/30 04:37:17;;;;;;;21.67;10.32;;;;;;;;;;4896494;29;20048;-80
2023/03/30 04:43:22;;;;;;;20.83;11.55;;;;;;;;;;4915198;29;20055;-81
2023/03/30 04:45:50;;;;;;;32.22;17.38;;;;;;;;;;4909992;29;20033;-81
2023/03/30 04:48:18;;;;;;;29.85;16.05;;;;;;;;;;4909846;29;20029;-81
2023/03/30 04:50:46;;;;;;;23.52;13.95;;;;;;;;;;4896488;29;20036;-81
2023/03/30 04:53:22;;;;;;;22.58;11.88;;;;;;;;;;4894800;29;20020;-81
2023/03/30 04:55:50;;;;;;;19.15;10.93;;;;;;;;;;4895275;29;20032;-81
2023/03/30 04:58:20;;;;;;;20.83;10.70;;;;;;;;;;4899690;29;20029;-81
2023/03/30 05:00:52;;;;;;;22.65;11.88;;;;;;;;;;4899389;29;20507;-81
2023/03/30 05:03:23;;;;;;;21.02;12.18;;;;;;;;;;4900693;29;20197;-81
2023/03/30 05:05:53;;;;;;;21.83;12.65;;;;;;;;;;4900703;29;20100;-81
2023/03/30 05:08:21;;;;;;;21.55;11.07;;;;;;;;;;4908717;29;20077;-81
2023/03/30 05:14:13;;;;;;;22.52;10.18;;;;;;;;;;4917469;29;20095;-81
2023/03/30 05:16:41;;;;;;;19.85;10.70;;;;;;;;;;4916006;29;20044;-81
2023/03/30 05:19:08;;;;;;;43.17;28.35;;;;;;;;;;4895987;29;20148;-81
2023/03/30 05:21:41;;;;;;;86.47;58.15;;;;;;;;;;4901459;29;20033;-81
2023/03/30 05:27:15;;;;;;;24.45;12.05;;;;;;;;;;4910968;29;20051;-81
2023/03/30 05:29:46;;;;;;;22.48;11.95;;;;;;;;;;4904901;29;20052;-79
2023/03/30 05:32:19;;;;;;;23.60;11.50;;;;;;;;;;4910078;29;20104;-81
2023/03/30 05:34:46;;;;;;;28.10;13.10;;;;;;;;;;4898731;29;20009;-79
2023/03/30 05:37:13;;;;;;;23.10;11.10;;;;;;;;;;4916745;29;20020;-81
2023/03/30 05:39:40;;;;;;;25.25;12.70;;;;;;;;;;4873406;29;20037;-80
2023/03/30 05:42:07;;;;;;;42.13;17.10;;;;;;;;;;4911215;29;20036;-81
2023/03/30 05:44:33;;;;;;;26.33;13.40;;;;;;;;;;4879640;29;20116;-81
2023/03/30 05:46:59;;;;;;;31.55;15.15;;;;;;;;;;4911697;29;20032;-81
2023/03/30 05:49:27;;;;;;;40.05;19.13;;;;;;;;;;4913594;29;20024;-81
2023/03/30 05:51:58;;;;;;;143.88;82.45;;;;;;;;;;4916582;29;20028;-81
2023/03/30 05:54:26;;;;;;;103.68;69.07;;;;;;;;;;4913787;29;20033;-81
2023/03/30 05:56:54;;;;;;;36.97;23.27;;;;;;;;;;4915924;29;20495;-81
2023/03/30 05:59:20;;;;;;;25.98;14.30;;;;;;;;;;4913462;29;20020;-81
2023/03/30 06:01:46;;;;;;;21.88;11.75;;;;;;;;;;4898369;29;20054;-81
2023/03/30 06:04:13;;;;;;;19.20;10.70;;;;;;;;;;4914672;29;20028;-81
2023/03/30 06:06:41;;;;;;;22.08;12.68;;;;;;;;;;4917591;29;20017;-81
2023/03/30 06:09:07;;;;;;;26.13;15.93;;;;;;;;;;4898904;29;20043;-81
2023/03/30 06:11:35;;;;;;;25.02;13.98;;;;;;;;;;4884195;29;20037;-81
2023/03/30 06:14:04;;;;;;;21.83;11.57;;;;;;;;;;4898904;29;20035;-81
2023/03/30 06:16:35;;;;;;;23.63;12.60;;;;;;;;;;4898824;29;20032;-81
2023/03/30 06:19:02;;;;;;;20.50;11.50;;;;;;;;;;4929702;29;20501;-79
2023/03/30 06:21:30;;;;;;;34.22;14.95;;;;;;;;;;4911151;29;20092;-79
2023/03/30 06:23:56;;;;;;;22.65;11.75;;;;;;;;;;4901399;29;20036;-79
2023/03/30 06:29:29;;;;;;;21.73;11.13;;;;;;;;;;4917284;29;20032;-79
2023/03/30 06:31:55;;;;;;;22.08;11.70;;;;;;;;;;4897601;29;20128;-79
2023/03/30 06:34:22;;;;;;;22.77;12.50;;;;;;;;;;4913007;29;20111;-78
2023/03/30 06:36:49;;;;;;;26.13;13.85;;;;;;;;;;4902210;29;20029;-79
2023/03/30 06:39:16;;;;;;;21.67;12.60;;;;;;;;;;4897565;29;20028;-78
2023/03/30 06:41:42;;;;;;;26.75;12.25;;;;;;;;;;4901471;29;20047;-79
2023/03/30 06:44:09;;;;;;;23.77;13.23;;;;;;;;;;4918315;29;20048;-79
2023/03/30 06:46:36;;;;;;;49.33;25.88;;;;;;;;;;4918080;29;20028;-79
2023/03/30 06:49:03;;;;;;;59.30;28.10;;;;;;;;;;4885019;29;20032;-79
2023/03/30 06:51:30;;;;;;;54.05;28.17;;;;;;;;;;4901586;29;20037;-79
2023/03/30 06:53:56;;;;;;;46.97;25.95;;;;;;;;;;4902617;29;20037;-79
2023/03/30 06:56:28;;;;;;;85.95;41.60;;;256.30;2252.80;;;;;;4902345;29;20040;-81
2023/03/30 06:58:56;;;;;;;67.95;29.02;;;256.80;2252.80;;;;;;4905939;29;20033;-81
2023/03/30 07:01:23;;;;;;;58.58;25.75;;;;;;;;;;4923514;29;20056;-81
2023/03/30 07:03:53;;;;;;;17.77;9.55;;;282.10;2150.40;;;;;;4900755;29;20057;-81
2023/03/30 07:06:24;;;;;;;28.27;14.05;;;281.70;2176.00;;;;;;4901079;29;20057;-80
2023/03/30 07:08:52;;;;;;;54.63;24.30;;;;;;;;;;4903263;29;20437;-81
2023/03/30 07:14:40;;;;;;;29.38;15.43;;;307.20;2022.40;;;;;;4893549;29;20065;-76
2023/03/30 07:17:06;;;;;;;18.38;10.02;;;282.10;2048.00;;;;;;4884322;29;20034;-77
2023/03/30 07:19:35;;;;;;;13.55;8.10;;;282.10;2048.00;;;;;;4887406;29;20385;-77
2023/03/30 07:22:02;;;;;;;15.77;8.02;;;281.90;2073.60;;;;;;4891871;29;20496;-78
2023/03/30 07:24:30;;;;;;;19.10;10.85;;;282.00;2073.60;;;;;;4892933;29;20171;-78
2023/03/30 07:26:56;;;;;;;21.05;12.13;;;282.40;2073.60;;;;;;4878480;29;20041;-81
2023/03/30 07:29:24;;;;;;;18.08;9.43;;;282.10;2073.60;;;;;;4897808;29;20033;-81
2023/03/30 07:31:50;;;;;;;14.25;7.78;;;282.10;2073.60;;;;;;4878473;29;20049;-79
2023/03/30 07:34:17;;;;;;;15.80;8.57;;;282.10;2048.00;;;;;;4855536;29;20033;-81
2023/03/30 07:36:43;;;;;;;19.33;11.32;;;282.20;2099.20;;;;;;4879239;29;20048;-80
2023/03/30 07:39:10;;;;;;;20.58;11.38;;;307.70;2124.80;;;;;;4862579;29;20061;-81
2023/03/30 07:41:36;;;;;;;17.10;8.88;;;282.50;2073.60;;;;;;4864465;29;20029;-80
2023/03/30 07:44:02;;;;;;;17.05;8.82;;;;;;;;;;4877484;29;20033;-80
2023/03/30 07:46:29;;;;;;;25.58;14.52;;;;;;;;;;4872483;29;20029;-80
2023/03/30 07:48:59;;;;;;;14.02;7.35;;;333.50;1945.60;;;;;;4891919;29;20084;-81
2023/03/30 07:51:25;;;;;;;15.57;8.25;;;333.20;1920.00;;;;;;4887023;29;20025;-81
2023/03/30 07:53:51;;;;;;;15.15;8.35;;;333.40;1920.00;;;;;;4893981;29;20036;-80
2023/03/30 07:56:17;;;;;;;15.93;8.15;;;333.60;1920.00;;;;;;4894771;29;20061;-80
2023/03/30 07:58:46;;;;;;;15.23;8.25;;;358.50;1894.40;;;;;;4878960;29;20037;-81
2023/03/30 08:01:14;;;;;;;15.40;7.60;;;358.50;1894.40;;;;;;4888741;29;20033;-80
2023/03/30 08:03:39;;;;;;;14.90;7.22;;;358.50;1868.80;;;;;;4887364;29;20069;-80
2023/03/30 08:36:01;;;;;;;16.33;7.90;;;;;;;;;;5972332;23;20133;31
2023/03/30 08:44:50;;;;;;;20.05;10.00;;;359.00;1817.60;;;;;;5057529;23;20033;-80
2023/03/30 08:50:11;;;;;;;19.77;9.40;;;;;;;;;;5024420;23;19982;-81
2023/03/30 08:55:58;;;;;;;15.20;7.85;;;;;;;;;;5239531;23;20130;-80
2023/03/30 08:58:44;;;;;;;18.05;9.63;;;;;;;;;;4908289;29;20032;-78
2023/03/30 09:01:21;;;;;;;12.07;7.20;;;;;;;;;;4885028;29;20560;-79
2023/03/30 09:03:53;;;;;;;13.35;6.57;;;;;;;;;;4884393;29;20029;-78
2023/03/30 09:06:27;;;;;;;15.93;9.43;;;;;;;;;;4886611;29;20037;-79
2023/03/30 09:08:56;;;;;;;12.45;6.47;;;;;;;;;;4889092;29;20540;-79
2023/03/30 09:11:33;;;;;;;9.88;5.93;;;;;;;;;;4887357;29;20033;-79
2023/03/30 09:14:02;;;;;;;11.95;7.10;;;410.50;1664.00;;;;;;4887093;29;20025;-78
2023/03/30 09:17:07;;;;;;;10.05;5.88;;;409.80;1689.60;;;;;;4884334;29;20025;-78
2023/03/30 09:19:44;;;;;;;11.15;5.85;;;409.90;1689.60;;;;;;4794729;29;20046;-79
2023/03/30 09:22:15;;;;;;;15.73;7.80;;;409.80;1689.60;;;;;;4799639;29;20204;-79
2023/03/30 09:24:42;;;;;;;12.75;6.97;;;409.80;1715.20;;;;;;4816420;29;20035;-79
2023/03/30 09:27:54;;;;;;;12.63;6.60;;;409.90;1715.20;;;;;;4817315;29;20098;-80
2023/03/30 09:30:27;;;;;;;12.65;5.97;;;410.00;1715.20;;;;;;4833294;29;20045;-79
2023/03/30 09:33:20;;;;;;;13.68;7.35;;;410.00;1689.60;;;;;;4840266;29;20090;-80
2023/03/30 09:36:03;;;;;;;15.18;7.35;;;409.90;1689.60;;;;;;4833342;29;20066;-78
2023/03/30 09:38:31;;;;;;;10.13;5.80;;;409.90;1689.60;;;;;;4810282;29;20022;-78
2023/03/30 09:41:26;;;;;;;11.25;5.90;;;409.90;1715.20;;;;;;4824213;29;20064;-78
2023/03/30 09:43:53;;;;;;;9.30;5.53;;;409.90;1664.00;;;;;;4808109;29;20522;-78
2023/03/30 09:46:19;;;;;;;10.68;5.35;;;409.90;1664.00;;;;;;4824529;29;20079;-78
2023/03/30 09:48:47;;;;;;;10.20;5.88;;;409.90;1664.00;;;;;;4825100;29;20121;-79
2023/03/30 09:51:30;;;;;;;16.35;8.10;;;409.90;1664.00;;;;;;4835184;29;20067;-80
2023/03/30 09:54:05;;;;;;;8.07;4.55;;;410.50;1638.40;;;;;;4836803;29;20548;-79
2023/03/30 09:56:45;;;;;;;8.25;4.60;;;;;;;;;;4886320;29;20061;-80
2023/03/30 09:59:32;;;;;;;9.60;4.93;;;;;;;;;;4884781;29;20032;-80
2023/03/30 10:02:15;;;;;;;9.25;4.57;;;436.00;1587.20;;;;;;4898554;29;20128;-80
2023/03/30 10:04:52;;;;;;;10.27;6.03;;;435.50;1587.20;;;;;;4896704;29;20037;-80
2023/03/30 10:07:39;;;;;;;8.95;4.43;;;435.30;1612.80;;;;;;4897106;29;20384;-80
2023/03/30 10:10:40;;;;;;;18.70;8.90;;;435.20;1612.80;;;;;;4897332;29;20484;-80
2023/03/30 10:13:18;;;;;;;15.23;7.88;;;410.50;1587.20;;;;;;4898266;29;20051;-80
2023/03/30 10:15:48;;;;;;;11.65;5.88;;;;;;;;;;4901729;29;20031;-80
2023/03/30 10:18:27;;;;;;;8.57;4.90;;;;;;;;;;4902396;29;20096;-80
2023/03/30 10:21:12;;;;;;;10.65;4.78;;;461.60;1536.00;;;;;;4935652;29;20422;-80
2023/03/30 10:23:48;;;;;;;7.15;4.22;;;;;;;;;;4935628;29;20068;-80
2023/03/30 10:26:19;;;;;;;11.88;6.05;;;;;;;;;;4920465;29;20032;-80
2023/03/30 10:28:53;;;;;;;8.98;4.70;;;;;;;;;;4908541;29;20040;-80
2023/03/30 10:31:20;;;;;;;9.48;4.68;;;;;;;;;;4939375;29;20050;-80
2023/03/30 10:33:48;;;;;;;8.65;4.50;;;;;;;;;;4920182;29;20032;-80
2023/03/30 10:36:16;;;;;;;11.15;5.10;;;;;;;;;;4918297;29;20063;-79
2023/03/30 10:38:42;;;;;;;12.95;6.30;;;;;;;;;;4936166;29;20044;-80
2023/03/30 10:41:13;;;;;;;16.27;6.45;;;;;;;;;;4935471;29;20040;-80
2023/03/30 10:43:42;;;;;;;15.98;7.82;;;;;;;;;;4924423;29;20039;-80
2023/03/30 10:46:21;;;;;;;12.95;6.78;;;;;;;;;;4941441;29;20055;-81
2023/03/30 10:49:06;;;;;;;11.82;6.20;;;;;;;;;;4940705;29;20031;-80
2023/03/30 10:51:43;;;;;;;;;;;487.10;1433.60;;;;;;4917641;29;20130;-80
2023/03/30 10:54:51;;;;;;;8.98;4.00;;;487.10;1459.20;;;;;;4902933;29;19911;-80
2023/03/30 10:57:23;;;;;;;8.13;3.80;;;487.10;1408.00;;;;;;4903576;29;20104;-80
2023/03/30 10:59:52;;;;;;;9.45;4.22;;;487.10;1408.00;;;;;;4925299;29;20025;-80
2023/03/30 11:02:26;;;;;;;8.70;3.85;;;486.80;1433.60;;;;;;4925100;29;20029;-80
2023/03/30 11:05:14;;;;;;;10.60;5.38;;;486.60;1433.60;;;;;;4911788;29;20032;-78
2023/03/30 11:08:01;;;;;;;7.72;4.47;;;486.60;1433.60;;;;;;4906594;29;20029;-78
2023/03/30 11:10:30;;;;;;;12.68;6.03;;;461.70;1459.20;;;;;;4905219;29;20037;-80
2023/03/30 11:13:03;;;;;;;6.93;4.00;;;461.60;1484.80;;;;;;4921280;29;20016;-80
2023/03/30 11:15:57;;;;;;;7.93;3.80;;;461.60;1484.80;;;;;;4921599;29;20028;-79
2023/03/30 11:19:09;;;;;;;11.82;4.47;;;461.30;1484.80;;;;;;4906983;29;20025;-82
2023/03/30 11:22:02;;;;;;;9.63;3.80;;;461.20;1510.40;;;;;;4905677;29;20037;-79
2023/03/30 11:24:39;;;;;;;9.43;3.63;;;461.30;1510.40;;;;;;4921125;29;20080;-79
2023/03/30 11:27:28;;;;;;;7.20;3.90;;;461.30;1510.40;;;;;;4905686;29;20060;-79
2023/03/30 11:30:07;;;;;;;18.17;9.48;;;461.40;1510.40;;;;;;4906282;29;20042;-79
2023/03/30 11:32:43;;;;;;;20.25;12.57;;;461.40;1510.40;;;;;;4898371;29;20044;-79
2023/03/30 11:35:23;;;;;;;13.07;7.10;;;461.40;1536.00;;;;;;4894108;29;20036;-79
2023/03/30 11:38:07;;;;;;;38.72;20.58;;;461.40;1536.00;;;;;;4895105;29;20037;-80
2023/03/30 11:40:43;;;;;;;11.00;5.57;;;486.70;1484.80;;;;;;4894257;29;20029;-80
2023/03/30 11:43:19;;;;;;;7.75;4.20;;;512.00;1433.60;;;;;;4891909;29;20066;-79
2023/03/30 11:46:07;;;;;;;8.60;4.75;;;512.20;1408.00;;;;;;4915606;29;20072;-79
2023/03/30 11:48:48;;;;;;;8.73;4.20;;;512.30;1433.60;;;;;;4901101;29;20068;-80
2023/03/30 11:51:17;;;;;;;8.27;5.35;;;512.30;1408.00;;;;;;4909746;29;20080;-80
2023/03/30 11:53:56;;;;;;;7.40;3.20;;;512.40;1408.00;;;;;;4909999;29;20033;-79
2023/03/30 11:56:55;;;;;;;7.32;4.13;;;512.60;1382.40;;;;;;4916250;29;20060;-79
2023/03/30 11:59:39;;;;;;;12.80;6.40;;;537.70;1382.40;;;;;;4931507;29;20028;-79
2023/03/30 12:02:31;;;;;;;12.77;7.82;;;512.90;1382.40;;;;;;4927476;29;20037;-78
2023/03/30 12:04:59;;;;;;;7.65;4.93;;;512.80;1408.00;;;;;;4913217;29;20028;-79
2023/03/30 12:07:38;;;;;;;17.05;11.48;;;512.60;1408.00;;;;;;4910033;29;20035;-79
2023/03/30 12:13:18;;;;;;;11.68;8.68;;;537.90;1382.40;;;;;;4914443;29;20064;-79
2023/03/30 12:16:12;;;;;;;8.60;4.32;;;;;;;;;;4924239;29;20037;-79
2023/03/30 12:19:05;;;;;;;6.45;3.97;;;;;;;;;;4925619;29;20032;-79
2023/03/30 12:21:52;;;;;;;39.72;23.33;;;538.20;1408.00;;;;;;4849164;29;20050;-79
2023/03/30 12:24:38;;;;;;;51.25;33.38;;;;;;;;;;4840384;29;20045;-79
2023/03/30 12:27:08;;;;;;;14.07;9.85;;;512.80;1408.00;;;;;;4849693;29;20070;-80
2023/03/30 12:29:47;;;;;;;9.32;4.68;;;512.40;1433.60;;;;;;4834475;29;20037;-79
2023/03/30 12:32:34;;;;;;;10.02;4.85;;;537.60;1408.00;;;;;;4846764;29;20042;-79
2023/03/30 12:35:40;;;;;;;8.80;5.07;;;537.90;1382.40;;;;;;4847635;29;20119;-79
2023/03/30 12:38:07;;;;;;;10.88;7.63;;;;;;;;;;4848250;29;20109;-79
2023/03/30 12:40:36;;;;;;;8.65;3.92;;;;;;;;;;4849671;29;20498;-79
2023/03/30 12:43:22;;;;;;;7.00;3.90;;;;;;;;;;4848440;29;20065;-79
2023/03/30 12:46:57;;;;;;;6.00;2.80;;;563.50;1382.40;;;;;;4848171;29;20062;-79
2023/03/30 12:49:32;;;;;;;4.95;2.78;;;;;;;;;;4776240;30;20039;-80
2023/03/30 12:51:58;;;;;;;6.68;3.00;;;;;;;;;;4769246;30;20036;-79
2023/03/30 12:54:31;;;;;;;8.20;2.65;;;;;;;;;;4776679;30;20052;-80
2023/03/30 12:57:13;;;;;;;5.32;2.35;;;563.90;1331.20;;;;;;4765978;30;20052;-79
2023/03/30 13:00:25;;;;;;;6.22;2.78;;;563.70;1280.00;;;;;;4803597;29;20094;-79
2023/03/30 13:03:22;;;;;;;5.20;2.50;;;564.00;1280.00;;;;;;4816412;29;20102;-79
2023/03/30 13:05:53;;;;;;;5.68;2.90;;;563.90;1305.60;;;;;;4815564;29;20451;-79
2023/03/30 13:08:37;;;;;;;7.03;3.50;;;564.00;1305.60;;;;;;4800248;29;20067;-79
2023/03/30 13:11:11;;;;;;;5.82;2.80;;;563.90;1305.60;;;;;;4818027;29;20041;-79
2023/03/30 13:13:45;;;;;;;6.55;2.85;;;564.00;1305.60;;;;;;4821654;29;20059;-79
2023/03/30 13:16:11;;;;;;;7.65;2.72;;;564.10;1305.60;;;;;;4811921;29;20038;-80
2023/03/30 13:18:54;;;;;;;9.95;3.00;;;589.10;1280.00;;;;;;4824523;29;20102;-79
2023/03/30 13:21:20;;;;;;;;;;;;;;;;;;4825588;29;20448;-79
2023/03/30 13:24:00;;;;;;;10.00;6.00;;;;;;;;;;4858761;29;19924;-80
2023/03/30 13:27:11;;;;;;;11.80;5.32;;;564.10;1305.60;;;;;;4931777;29;20027;-79
2023/03/30 13:43:13;;;;;;;7.35;3.83;;;589.20;1280.00;;;;;;5293051;23;20060;-80
2023/03/30 13:46:11;;;;;;;5.97;3.28;;;589.20;1280.00;;;;;;4925779;29;20075;-81
2023/03/30 13:51:43;;;;;;;4.95;2.53;;;564.10;1280.00;;;;;;4673454;23;17049271;-80
2023/03/30 13:54:33;;;;;;;5.47;2.30;;;563.70;1331.20;;;;;;4895259;29;20037;-80
2023/03/30 14:01:05;;;;;;;5.28;2.60;;;588.80;1305.60;;;;;;4902242;29;20036;-80
2023/03/30 14:04:02;;;;;;;6.47;2.90;;;589.30;1280.00;;;;;;4904866;29;20088;-80
2023/03/30 14:06:30;;;;;;;7.80;3.38;;;589.10;1280.00;;;;;;4904906;29;20005;-79
2023/03/30 14:09:05;;;;;;;19.30;10.75;;;589.30;1305.60;;;;;;4916129;29;20413;-79
2023/03/30 14:12:06;;;;;;;8.35;4.10;;;589.20;1254.40;;;;;;4886714;29;20111;-80
2023/03/30 14:14:45;;;;;;;6.90;2.28;;;589.10;1305.60;;;;;;4915454;29;20088;-81
2023/03/30 14:17:28;;;;;;;4.85;2.00;;;589.10;1280.00;;;;;;4919599;29;20028;-79
2023/03/30 14:20:05;;;;;;;18.77;9.57;;;564.10;1280.00;;;;;;4919649;29;20020;-80
2023/03/30 14:22:52;;;;;;;11.43;5.15;;;588.90;1305.60;;;;;;4888524;29;20044;-80
2023/03/30 14:25:51;;;;;;;6.35;2.90;;;564.00;1305.60;;;;;;4889391;29;20027;-79
2023/03/30 14:32:15;;;;;;;9.15;4.00;;;563.80;1331.20;;;;;;4920910;29;20048;-80
2023/03/30 14:34:50;;;;;;;10.13;4.57;;;563.50;1356.80;;;;;;4888408;29;20051;-80
2023/03/30 14:37:38;;;;;;;11.43;5.53;;;;;;;;;;4905666;29;20034;-80
2023/03/30 14:40:19;;;;;;;8.68;4.90;;;563.60;1356.80;;;;;;4918963;29;20040;-80
2023/03/30 14:46:29;;;;;;;8.37;4.47;;;563.40;1382.40;;;;;;4902499;29;20028;-80
2023/03/30 14:49:07;;;;;;;7.22;3.58;;;563.20;1382.40;;;;;;4887268;29;20061;-80
2023/03/30 14:52:08;;;;;;;5.57;3.22;;;563.20;1408.00;;;;;;4915292;29;20064;-80
2023/03/30 14:57:47;;;;;;;14.00;5.60;;;538.40;1382.40;;;;;;4920337;29;20039;-80
2023/03/30 15:00:21;;;;;;;12.32;6.60;;;538.10;1408.00;;;;;;4924943;29;20036;-81
2023/03/30 15:16:34;;;;;;;6.20;3.13;;;;;;;;;;5330869;23;20127;-79
2023/03/30 15:20:27;;;;;;;8.40;3.08;;;563.70;1382.40;;;;;;4904024;29;20057;-80
2023/03/30 15:23:49;;;;;;;5.88;3.00;;;563.30;1408.00;;;;;;4833483;29;20046;-80
2023/03/30 15:41:41;;;;;;;8.30;3.50;;;538.30;1382.40;;;;;;5817171;23;20048;-79
2023/03/30 15:54:29;;;;;;;8.45;3.90;;;537.90;1433.60;;;;;;5767482;23;20371;-79
2023/03/30 15:57:49;;;;;;;26.20;14.32;;;537.90;1433.60;;;;;;5263815;23;20030;31
2023/03/30 16:23:21;;;;;;;16.48;8.88;;;512.60;1459.20;;;;;;5215980;23;20051;-81
2023/03/30 17:33:48;;;;;;;77.63;43.67;;;;;;;;;;5042951;23;20314;-80
2023/03/30 18:08:11;;;;;;;19.45;10.55;;;461.20;1740.80;;;;;;5074589;23;20047;-80
2023/03/30 18:39:18;;;;;;;11.63;3.90;;;436.10;1894.40;;;;;;531335;27;20288;-82
2023/03/30 18:41:51;;;;;;;8.02;4.13;;;435.80;1920.00;;;;;;4881831;29;20047;-80
2023/03/30 18:44:41;;;;;;;10.52;5.10;;;435.80;1945.60;;;;;;4921071;29;20036;-79
2023/03/30 18:47:34;;;;;;;7.85;4.18;;;435.80;1971.20;;;;;;4887892;29;20029;-79
2023/03/30 18:50:42;;;;;;;8.73;3.97;;;435.70;2022.40;;;;;;4917392;29;20055;-79
2023/03/30 18:53:14;;;;;;;7.90;4.05;;;435.50;2073.60;;;;;;4820979;29;20068;-79
2023/03/30 18:55:45;;;;;;;8.90;3.50;;;435.50;2099.20;;;;;;4796377;29;20119;-80
2023/03/30 19:02:11;;;;;;;7.53;3.15;;;435.40;2150.40;;;;;;4831001;29;20064;-81
2023/03/30 19:04:48;;;;;;;8.13;3.00;;;435.40;2201.60;;;;;;4830282;29;20096;-80
2023/03/30 19:07:26;;;;;;;7.43;3.08;;;;;;;;;;4825070;29;20052;-80